Menu Close Menu
Station Historical Data
Daily Summary for October 29, 2017 Units:  Metric    English   Both
« Previous Day
Next Day »
Daily Weekly Monthly Yearly Custom
  High: Low: Average:
Temperature: 5 °C 0.7 °C 3.4 °C
Dew Point: 3.2 °C -1.3 °C 0.2 °C
Humidity: 88% 67% 80%
Wind Speed: 16.7km/h 0km/h 2.6km/h
Wind Gust: 16.7km/h - -
Wind- - WSW
Pressure: 1014.1 hPa 1009 hPa -
Precipitation: 0 mm    
Historical Graphs
 
 
Tabular Data for October 29, 2017
Time Temperature Dew Point Pressure Wind Wind Speed Wind Gust Humidity Rainfall Rate (Hourly) solar Conditions
00:02 4.9 °C 3.1 °C 1010.4 hPa ENE 1.9 km/h 1.9 km/h 88% 0 mm WeatherDisplay:10.37 W/m2 OVC
00:07 5 °C 3.2 °C 1010.4 hPa SSW 3.2 km/h 3.2 km/h 88% 0 mm WeatherDisplay:10.37 W/m2 OVC
00:12 4.9 °C 3.1 °C 1010.4 hPa ESE 3.7 km/h 3.7 km/h 88% 0 mm WeatherDisplay:10.37 W/m2 OVC
00:17 5 °C 3.2 °C 1010.4 hPa SW 5.6 km/h 5.6 km/h 88% 0 mm WeatherDisplay:10.37 W/m2 OVC
00:22 4.9 °C 2.9 °C 1010.4 hPa West 1.9 km/h 1.9 km/h 87% 0 mm WeatherDisplay:10.37 W/m2 OVC
00:28 4.9 °C 2.9 °C 1010.4 hPa WSW 9.3 km/h 9.3 km/h 87% 0 mm WeatherDisplay:10.37 W/m2 OVC
00:33 4.9 °C 2.9 °C 1010 hPa West 5.6 km/h   87% 0 mm WeatherDisplay:10.37 W/m2 OVC
00:38 4.9 °C 2.9 °C 1010 hPa WNW 3.7 km/h 3.7 km/h 87% 0 mm WeatherDisplay:10.37 W/m2 OVC
00:42 4.9 °C 2.7 °C 1010 hPa SW 3.2 km/h 3.2 km/h 86% 0 mm WeatherDisplay:10.37 W/m2 OVC
00:48 4.9 °C 2.9 °C 1010 hPa WNW 3.7 km/h 3.7 km/h 87% 0 mm WeatherDisplay:10.37 W/m2 OVC
00:53 4.9 °C 2.9 °C 1009.7 hPa WNW 3.7 km/h 3.7 km/h 87% 0 mm WeatherDisplay:10.37 W/m2 OVC
00:58 4.8 °C 2.7 °C 1009.7 hPa SW 9.3 km/h 9.3 km/h 86% 0 mm WeatherDisplay:10.37 W/m2 OVC
01:03 4.8 °C 2.7 °C 1009.7 hPa West 1.9 km/h 1.9 km/h 86% 0 mm WeatherDisplay:10.37 W/m2 OVC
01:08 4.8 °C 2.6 °C 1009.7 hPa NW 5.6 km/h 5.6 km/h 86% 0 mm WeatherDisplay:10.37 W/m2 OVC
01:13 4.7 °C 2.7 °C 1009.7 hPa West 1.9 km/h 1.9 km/h 87% 0 mm WeatherDisplay:10.37 W/m2 OVC
01:18 4.6 °C 2.6 °C 1009.7 hPa NW 5.6 km/h 5.6 km/h 87% 0 mm WeatherDisplay:10.37 W/m2 OVC
01:23 4.6 °C 2.4 °C 1009.7 hPa Calm     86% 0 mm WeatherDisplay:10.37 W/m2 OVC
01:28 4.5 °C 2.5 °C 1009.7 hPa East 6.6 km/h 6.6 km/h 87% 0 mm WeatherDisplay:10.37 W/m2 OVC
01:33 4.5 °C 2.3 °C 1009.7 hPa East 5.6 km/h 5.6 km/h 86% 0 mm WeatherDisplay:10.37 W/m2 OVC
01:38 4.4 °C 2.3 °C 1009.7 hPa WNW 3.7 km/h 3.7 km/h 86% 0 mm WeatherDisplay:10.37 W/m2 OVC
01:43 4.4 °C 2.4 °C 1009.7 hPa West 1.6 km/h 1.6 km/h 87% 0 mm WeatherDisplay:10.37 W/m2 OVC
01:49 4.3 °C 2.3 °C 1009.4 hPa WNW 5 km/h 5 km/h 87% 0 mm WeatherDisplay:10.37 W/m2 OVC
01:54 4.3 °C 2.2 °C 1009.4 hPa WNW 1.9 km/h   86% 0 mm WeatherDisplay:10.37 W/m2 OVC
01:59 4.3 °C 2.2 °C 1009.4 hPa West 1.6 km/h   86% 0 mm WeatherDisplay:10.37 W/m2 OVC
02:04 4.2 °C 2.1 °C 1009.4 hPa WNW 3.7 km/h 3.7 km/h 86% 0 mm WeatherDisplay:10.37 W/m2 OVC
02:09 4.3 °C 2.3 °C 1009.4 hPa NW 5.6 km/h 5.6 km/h 87% 0 mm WeatherDisplay:10.37 W/m2 OVC
02:14 4.3 °C 2.2 °C 1009.4 hPa WNW 5.6 km/h 5.6 km/h 86% 0 mm WeatherDisplay:10.37 W/m2 OVC
02:19 4.4 °C 2.3 °C 1009.4 hPa SW 7.4 km/h 7.4 km/h 86% 0 mm WeatherDisplay:10.37 W/m2 OVC
02:24 4.4 °C 2.3 °C 1009.4 hPa West 1.9 km/h 1.9 km/h 86% 0 mm WeatherDisplay:10.37 W/m2 OVC
02:29 4.5 °C 2.2 °C 1009.4 hPa WNW 3.7 km/h 3.7 km/h 85% 0 mm WeatherDisplay:10.37 W/m2 OVC
02:35 4.5 °C 2.4 °C 1009.4 hPa Calm   3.2 km/h 86% 0 mm WeatherDisplay:10.37 W/m2 OVC
02:40 4.5 °C 2.2 °C 1009.4 hPa WNW 1.6 km/h 8 km/h 85% 0 mm WeatherDisplay:10.37 W/m2 OVC
02:45 4.6 °C 2.3 °C 1009.4 hPa WSW 1.6 km/h 8 km/h 85% 0 mm WeatherDisplay:10.37 W/m2 OVC
02:50 4.6 °C 2.3 °C 1009.7 hPa Calm   8 km/h 85% 0 mm WeatherDisplay:10.37 W/m2 OVC
02:55 4.6 °C 2.3 °C 1009.4 hPa Calm   3.2 km/h 85% 0 mm WeatherDisplay:10.37 W/m2 OVC
03:00 4.6 °C 2.3 °C 1009.4 hPa Calm   3.2 km/h 85% 0 mm WeatherDisplay:10.37 W/m2 OVC
03:05 4.6 °C 2.1 °C 1009.4 hPa West 1.6 km/h 8 km/h 84% 0 mm WeatherDisplay:10.37 W/m2 OVC
03:10 4.6 °C 2.3 °C 1009.4 hPa Calm   3.2 km/h 85% 0 mm WeatherDisplay:10.37 W/m2 OVC
03:15 4.6 °C 2.5 °C 1009.4 hPa Calm   3.2 km/h 86% 0 mm WeatherDisplay:10.37 W/m2 OVC
03:20 4.6 °C 2.1 °C 1009.4 hPa WSW 1.6 km/h 4.8 km/h 84% 0 mm WeatherDisplay:10.37 W/m2 OVC
03:25 4.6 °C 2.3 °C 1009.4 hPa Calm   4.8 km/h 85% 0 mm WeatherDisplay:10.37 W/m2 OVC
03:30 4.6 °C 2.3 °C 1009.4 hPa NE 3.7 km/h 3.7 km/h 85% 0 mm WeatherDisplay:10.37 W/m2 OVC
03:35 4.6 °C 2.3 °C 1009.4 hPa WNW 1.6 km/h 3.2 km/h 85% 0 mm WeatherDisplay:10.37 W/m2 OVC
03:40 4.5 °C 2.2 °C 1009.4 hPa Calm   3.2 km/h 85% 0 mm WeatherDisplay:10.37 W/m2 OVC
03:45 4.5 °C 2.2 °C 1009.4 hPa Calm   8 km/h 85% 0 mm WeatherDisplay:10.37 W/m2 OVC
03:50 4.4 °C 2 °C 1009.4 hPa West 1.6 km/h 4.8 km/h 84% 0 mm WeatherDisplay:10.37 W/m2 OVC
03:55 4.4 °C 2 °C 1009.4 hPa Calm   3.2 km/h 84% 0 mm WeatherDisplay:10.37 W/m2 OVC
04:00 4.4 °C 2.1 °C 1009.4 hPa Calm     85% 0 mm WeatherDisplay:10.37 W/m2 OVC
04:04 4.3 °C 1.9 °C 1009 hPa SW 3.7 km/h 3.7 km/h 84% 0 mm WeatherDisplay:10.37 W/m2 OVC
04:10 4.3 °C 2.1 °C 1009 hPa Calm   4.8 km/h 85% 0 mm WeatherDisplay:10.37 W/m2 OVC
04:15 4.3 °C 2 °C 1009 hPa Calm   4.8 km/h 85% 0 mm WeatherDisplay:10.37 W/m2 OVC
04:20 4.3 °C 2 °C 1009 hPa Calm   4.8 km/h 85% 0 mm WeatherDisplay:10.37 W/m2 OVC
04:25 4.2 °C 1.8 °C 1009 hPa NW 1.9 km/h 1.9 km/h 84% 0 mm WeatherDisplay:10.37 W/m2 OVC
04:30 4.2 °C 1.9 °C 1009 hPa West 1.6 km/h 8 km/h 85% 0 mm WeatherDisplay:10.37 W/m2 OVC
04:35 4.2 °C 1.9 °C 1009 hPa West 1.6 km/h 4.8 km/h 85% 0 mm WeatherDisplay:10.37 W/m2 OVC
04:40 4.2 °C 1.7 °C 1009 hPa WSW 1.6 km/h 4.8 km/h 84% 0 mm WeatherDisplay:10.37 W/m2 OVC
04:45 4.1 °C 1.4 °C 1009 hPa Calm   8 km/h 83% 0 mm WeatherDisplay:10.37 W/m2 OVC
04:50 4 °C 1.4 °C 1009 hPa Calm   8 km/h 83% 0 mm WeatherDisplay:10.37 W/m2 OVC
04:55 4 °C 1.3 °C 1009 hPa Calm   3.2 km/h 83% 0 mm WeatherDisplay:10.37 W/m2 OVC
05:00 3.9 °C 1.5 °C 1009 hPa Calm   4.8 km/h 84% 0 mm WeatherDisplay:10.37 W/m2 OVC
05:05 3.9 °C 1.3 °C 1009 hPa WSW 1.6 km/h 9.7 km/h 83% 0 mm WeatherDisplay:10.37 W/m2 OVC
05:10 3.8 °C 1.2 °C 1009 hPa SW 1.6 km/h 8 km/h 83% 0 mm WeatherDisplay:10.37 W/m2 OVC
05:15 3.8 °C 1.4 °C 1009 hPa Calm   3.2 km/h 84% 0 mm WeatherDisplay:10.37 W/m2 OVC
05:20 3.8 °C 1.3 °C 1009 hPa Calm   3.2 km/h 84% 0 mm WeatherDisplay:10.37 W/m2 OVC
05:25 3.8 °C 1.3 °C 1009 hPa West 1.6 km/h 8 km/h 84% 0 mm WeatherDisplay:10.37 W/m2 OVC
05:30 3.7 °C 1.3 °C 1009 hPa SW 3.7 km/h 3.7 km/h 84% 0 mm WeatherDisplay:10.37 W/m2 OVC
05:35 3.7 °C 1.2 °C 1009 hPa Calm   4.8 km/h 84% 0 mm WeatherDisplay:10.37 W/m2 OVC
05:40 3.7 °C 1.2 °C 1009 hPa Calm   8 km/h 84% 0 mm WeatherDisplay:10.37 W/m2 OVC
05:45 3.7 °C 1.2 °C 1009 hPa WNW 1.6 km/h 4.8 km/h 84% 0 mm WeatherDisplay:10.37 W/m2 OVC
05:50 3.6 °C 1.2 °C 1009 hPa Calm   4.8 km/h 84% 0 mm WeatherDisplay:10.37 W/m2 OVC
05:55 3.6 °C 0.9 °C 1009 hPa Calm   3.2 km/h 83% 0 mm WeatherDisplay:10.37 W/m2 OVC
06:00 3.6 °C 1 °C 1009 hPa WNW 7.4 km/h 7.4 km/h 83% 0 mm WeatherDisplay:10.37 W/m2 OVC
06:05 3.6 °C 1.1 °C 1009 hPa Calm   8 km/h 84% 0 mm WeatherDisplay:10.37 W/m2 OVC
06:10 3.6 °C 1.1 °C 1009 hPa WNW 1.6 km/h 3.2 km/h 84% 0 mm WeatherDisplay:10.37 W/m2 OVC
06:15 3.6 °C 1.1 °C 1009 hPa Calm   4.8 km/h 84% 0 mm WeatherDisplay:10.37 W/m2 OVC
06:20 3.5 °C 0.9 °C 1009 hPa Calm   4.8 km/h 83% 0 mm WeatherDisplay:10.37 W/m2 OVC
06:25 3.5 °C 0.9 °C 1009 hPa Calm     83% 0 mm WeatherDisplay:10.37 W/m2 OVC
06:29 3.5 °C 0.9 °C 1009 hPa East 7.4 km/h 7.4 km/h 83% 0 mm WeatherDisplay:10.37 W/m2 OVC
06:35 3.4 °C 0.8 °C 1009 hPa South 9.8 km/h 9.8 km/h 83% 0 mm WeatherDisplay:10.37 W/m2 OVC
06:40 3.4 °C 0.8 °C 1009 hPa Calm   9.7 km/h 83% 0 mm WeatherDisplay:10.37 W/m2 OVC
06:45 3.4 °C 0.8 °C 1009 hPa Calm   3.2 km/h 83% 0 mm WeatherDisplay:10.37 W/m2 OVC
06:50 3.3 °C 0.7 °C 1009 hPa WSW 1.6 km/h 3.2 km/h 83% 0 mm WeatherDisplay:10.37 W/m2 OVC
06:55 3.3 °C 0.7 °C 1009.4 hPa NW 1.9 km/h 1.9 km/h 83% 0 mm WeatherDisplay:10.37 W/m2 OVC
07:00 3.3 °C 0.7 °C 1009 hPa Calm   4.8 km/h 83% 0 mm WeatherDisplay:10.37 W/m2 OVC
07:05 3.3 °C 0.5 °C 1009.4 hPa NW 1.6 km/h 4.8 km/h 82% 0 mm WeatherDisplay:10.37 W/m2 OVC
07:10 3.2 °C 0.3 °C 1009.4 hPa Calm   8 km/h 81% 0 mm WeatherDisplay:10.37 W/m2 OVC
07:15 3.2 °C 0.4 °C 1009 hPa WNW 1.6 km/h 4.8 km/h 82% 0 mm WeatherDisplay:10.37 W/m2 OVC
07:20 3.2 °C 0.2 °C 1009.4 hPa NW 1.9 km/h 1.9 km/h 81% 0 mm WeatherDisplay:10.37 W/m2 OVC
07:24 3.2 °C 0.2 °C 1009.4 hPa SSW 3.7 km/h 3.7 km/h 81% 0 mm WeatherDisplay:10.37 W/m2 OVC
07:30 3.2 °C 0.4 °C 1009.4 hPa WSW 1.6 km/h 4.8 km/h 82% 0 mm WeatherDisplay:10.37 W/m2 OVC
07:35 3.1 °C 0.3 °C 1009.4 hPa Calm   8 km/h 82% 0 mm WeatherDisplay:10.37 W/m2 OVC
07:40 3.1 °C 0.3 °C 1009.4 hPa WNW 1.6 km/h 8 km/h 82% 0 mm WeatherDisplay:10.37 W/m2 OVC
07:45 3.1 °C 0.3 °C 1009.4 hPa NNW 1.6 km/h 4.8 km/h 82% 0 mm WeatherDisplay:10.37 W/m2 OVC
07:50 3.1 °C 0.3 °C 1009.4 hPa WNW 3.7 km/h 3.7 km/h 82% 0 mm WeatherDisplay:10.37 W/m2 OVC
07:55 3.1 °C 0.3 °C 1009.7 hPa West 1.6 km/h 8 km/h 82% 0 mm WeatherDisplay:10.37 W/m2 OVC
08:00 3.1 °C 0.1 °C 1009.7 hPa Calm   9.7 km/h 81% 0 mm WeatherDisplay:10.37 W/m2 OVC
08:05 3.1 °C 0.1 °C 1009.7 hPa WSW 3.2 km/h 12.9 km/h 81% 0 mm WeatherDisplay:10.37 W/m2 OVC
08:10 3 °C 0.1 °C 1009.7 hPa WSW 3.7 km/h 3.7 km/h 81% 0 mm WeatherDisplay:10.37 W/m2 OVC
08:15 3 °C -0.1 °C 1009.7 hPa Calm   4.8 km/h 80% 0 mm WeatherDisplay:10.37 W/m2 OVC
08:20 2.9 °C -0.2 °C 1010 hPa WSW 1.6 km/h 8 km/h 80% 0 mm WeatherDisplay:10.37 W/m2 OVC
08:25 2.9 °C -0.2 °C 1010 hPa SW 1.6 km/h 9.7 km/h 80% 0 mm WeatherDisplay:10.37 W/m2 OVC
08:30 2.9 °C 0 °C 1010 hPa WSW 3.2 km/h 3.2 km/h 81% 0 mm WeatherDisplay:10.37 W/m2 OVC
08:35 2.9 °C -0.1 °C 1010 hPa West 1.6 km/h 8 km/h 81% 0 mm WeatherDisplay:10.37 W/m2 OVC
08:40 2.9 °C -0.1 °C 1010 hPa Calm   3.2 km/h 81% 0 mm WeatherDisplay:10.37 W/m2 OVC
08:45 2.9 °C -0.1 °C 1010 hPa Calm   8 km/h 81% 0 mm WeatherDisplay:10.37 W/m2 OVC
08:50 2.8 °C -0.3 °C 1010.4 hPa SW 9.8 km/h 9.8 km/h 80% 0 mm WeatherDisplay:10.37 W/m2 OVC
08:55 2.8 °C -0.3 °C 1010.4 hPa West 3.7 km/h 3.7 km/h 80% 0 mm WeatherDisplay:10.37 W/m2 OVC
09:00 2.8 °C -0.3 °C 1010.4 hPa East 1.9 km/h 1.9 km/h 80% 0 mm WeatherDisplay:10.37 W/m2 OVC
09:05 2.8 °C -0.3 °C 1010.4 hPa SSW 3.2 km/h 3.2 km/h 80% 0 mm WeatherDisplay:10.37 W/m2 OVC
09:10 2.8 °C -0.3 °C 1010.7 hPa SW 5 km/h 5 km/h 80% 0 mm WeatherDisplay:10.37 W/m2 OVC
09:16 2.8 °C -0.5 °C 1010.4 hPa West 3.7 km/h 3.7 km/h 79% 0 mm WeatherDisplay:10.37 W/m2 OVC
09:21 2.8 °C -0.5 °C 1010.7 hPa SW 7.4 km/h 7.4 km/h 79% 0 mm WeatherDisplay:10.37 W/m2 OVC
09:26 2.8 °C -0.3 °C 1010.7 hPa NW 1.9 km/h 1.9 km/h 80% 0 mm WeatherDisplay:10.37 W/m2 OVC
09:31 2.8 °C -0.4 °C 1011.1 hPa East 3.2 km/h 3.2 km/h 79% 0 mm WeatherDisplay:10.37 W/m2 OVC
09:36 2.9 °C -0.1 °C 1011.1 hPa NNW 1.9 km/h 1.9 km/h 81% 0 mm WeatherDisplay:10.37 W/m2 OVC
09:41 2.8 °C -0.4 °C 1011.1 hPa North 3.7 km/h 3.7 km/h 79% 0 mm WeatherDisplay:10.37 W/m2 OVC
09:46 2.8 °C -0.6 °C 1011.1 hPa SSW 3.7 km/h 3.7 km/h 78% 0 mm WeatherDisplay:10.37 W/m2 OVC
09:52 2.8 °C -0.4 °C 1011.1 hPa West 5.6 km/h 5.6 km/h 79% 0 mm WeatherDisplay:10.37 W/m2 OVC
09:57 2.8 °C -0.6 °C 1011.1 hPa West 5.6 km/h 5.6 km/h 78% 0 mm WeatherDisplay:10.37 W/m2 OVC
10:02 2.9 °C -0.6 °C 1011.1 hPa WNW 1.9 km/h 1.9 km/h 78% 0 mm WeatherDisplay:10.37 W/m2 OVC
10:07 2.9 °C -0.6 °C 1011.1 hPa West 3.7 km/h 3.7 km/h 78% 0 mm WeatherDisplay:10.37 W/m2 OVC
10:12 2.9 °C -0.6 °C 1011.1 hPa West 5.6 km/h 5.6 km/h 78% 0 mm WeatherDisplay:10.37 W/m2 OVC
10:17 2.9 °C -0.7 °C 1011.1 hPa NE 5.6 km/h 5.6 km/h 77% 0 mm WeatherDisplay:10.37 W/m2 OVC
10:21 2.9 °C -0.6 °C 1011.1 hPa West 3.7 km/h 3.7 km/h 78% 0 mm WeatherDisplay:10.37 W/m2 OVC
10:26 2.9 °C -0.5 °C 1011.4 hPa WNW 5.6 km/h 5.6 km/h 78% 0 mm WeatherDisplay:10.37 W/m2 OVC
10:31 3 °C -0.3 °C 1011.4 hPa West 1.9 km/h 1.9 km/h 79% 0 mm WeatherDisplay:10.37 W/m2 OVC
10:36 3.1 °C -0.4 °C 1011.4 hPa WNW 5.6 km/h 5.6 km/h 78% 0 mm WeatherDisplay:10.37 W/m2 OVC
10:41 3.1 °C -0.8 °C 1011.4 hPa SE 3.7 km/h 3.7 km/h 76% 0 mm WeatherDisplay:10.37 W/m2 OVC
10:46 3.1 °C -0.4 °C 1011.4 hPa West 5.6 km/h 5.6 km/h 78% 0 mm WeatherDisplay:10.37 W/m2 OVC
10:51 3.1 °C -0.7 °C 1011.4 hPa South 16.7 km/h 16.7 km/h 76% 0 mm WeatherDisplay:10.37 W/m2 OVC
10:56 3.1 °C -0.6 °C 1011.4 hPa South 1.9 km/h   77% 0 mm WeatherDisplay:10.37 W/m2 OVC
11:01 3.1 °C -0.6 °C 1011.4 hPa East 11.1 km/h 11.1 km/h 77% 0 mm WeatherDisplay:10.37 W/m2 OVC
11:07 3.1 °C -0.6 °C 1011.4 hPa SW 7.4 km/h 7.4 km/h 77% 0 mm WeatherDisplay:10.37 W/m2 OVC
11:12 3.1 °C -0.9 °C 1011.7 hPa SSW 9.3 km/h 9.3 km/h 75% 0 mm WeatherDisplay:10.37 W/m2 OVC
11:17 3.1 °C -0.7 °C 1011.7 hPa West 3.7 km/h 3.7 km/h 76% 0 mm WeatherDisplay:10.37 W/m2 OVC
11:22 3.1 °C -0.9 °C 1011.4 hPa WNW 1.9 km/h   75% 0 mm WeatherDisplay:10.37 W/m2 OVC
11:27 3.1 °C -0.9 °C 1011.7 hPa West 5.6 km/h 5.6 km/h 75% 0 mm WeatherDisplay:10.37 W/m2 OVC
11:32 3.1 °C -0.9 °C 1011.7 hPa SSW 7.4 km/h 7.4 km/h 75% 0 mm WeatherDisplay:10.37 W/m2 OVC
11:37 3.1 °C -1.1 °C 1011.7 hPa West 5.6 km/h 5.6 km/h 74% 0 mm WeatherDisplay:10.37 W/m2 OVC
11:42 3.1 °C -1.1 °C 1011.7 hPa WSW 9.3 km/h 9.3 km/h 74% 0 mm WeatherDisplay:10.37 W/m2 OVC
11:48 3.2 °C -1 °C 1011.7 hPa WNW 7.4 km/h 7.4 km/h 74% 0 mm WeatherDisplay:10.37 W/m2 OVC
11:49 3.2 °C -0.9 °C 1011.7 hPa East 7.4 km/h 7.4 km/h 74% 0 mm WeatherDisplay:10.37 W/m2 OVC
11:54 3.2 °C -1.2 °C 1011.7 hPa SW 5.6 km/h 5.6 km/h 73% 0 mm WeatherDisplay:10.37 W/m2 OVC
11:55 3.2 °C -1.2 °C 1011.7 hPa WSW 3.7 km/h 3.7 km/h 73% 0 mm WeatherDisplay:10.37 W/m2 OVC
12:00 3.3 °C -0.7 °C 1011.7 hPa WNW 3.7 km/h 3.7 km/h 75% 0 mm WeatherDisplay:10.37 W/m2 OVC
12:05 3.4 °C -0.6 °C 1011.7 hPa West 1.9 km/h 1.9 km/h 75% 0 mm WeatherDisplay:10.37 W/m2 OVC
12:10 3.4 °C -0.9 °C 1011.7 hPa NNW 3.7 km/h 3.7 km/h 73% 0 mm WeatherDisplay:10.37 W/m2 OVC
12:15 3.5 °C -0.7 °C 1011.7 hPa WSW 3.7 km/h 3.7 km/h 74% 0 mm WeatherDisplay:10.37 W/m2 OVC
12:20 3.5 °C -0.9 °C 1011.7 hPa NNE 3.7 km/h 3.7 km/h 73% 0 mm WeatherDisplay:10.37 W/m2 OVC
12:25 3.6 °C -0.8 °C 1011.7 hPa WNW 9.3 km/h 9.3 km/h 73% 0 mm WeatherDisplay:10.37 W/m2 OVC
12:31 3.6 °C -0.6 °C 1011.7 hPa WNW 1.9 km/h 1.9 km/h 74% 0 mm WeatherDisplay:10.37 W/m2 OVC
12:36 3.6 °C -0.8 °C 1011.7 hPa West 5.6 km/h 5.6 km/h 73% 0 mm WeatherDisplay:10.37 W/m2 OVC
12:41 3.6 °C -0.8 °C 1011.7 hPa SW 1.9 km/h 1.9 km/h 73% 0 mm WeatherDisplay:10.37 W/m2 OVC
12:46 3.7 °C -0.5 °C 1011.7 hPa South 5.6 km/h 5.6 km/h 74% 0 mm WeatherDisplay:10.37 W/m2 OVC
12:51 3.7 °C -0.7 °C 1011.7 hPa West 1.9 km/h 1.9 km/h 73% 0 mm WeatherDisplay:10.37 W/m2 OVC
12:56 3.7 °C -0.7 °C 1011.7 hPa SE 3.7 km/h 3.7 km/h 73% 0 mm WeatherDisplay:10.37 W/m2 OVC
13:01 3.6 °C -0.6 °C 1011.7 hPa NNW 9.3 km/h 9.3 km/h 74% 0 mm WeatherDisplay:10.37 W/m2 OVC
13:06 3.7 °C -0.7 °C 1011.7 hPa WNW 3.7 km/h 3.7 km/h 73% 0 mm WeatherDisplay:10.37 W/m2 OVC
13:11 3.7 °C -0.7 °C 1011.7 hPa WNW 3.7 km/h 3.7 km/h 73% 0 mm WeatherDisplay:10.37 W/m2 OVC
13:16 3.7 °C -0.3 °C 1011.7 hPa West 3.7 km/h 3.7 km/h 75% 0 mm WeatherDisplay:10.37 W/m2 OVC
13:21 3.7 °C -0.3 °C 1011.7 hPa West 1.6 km/h 1.6 km/h 75% 0 mm WeatherDisplay:10.37 W/m2 OVC
13:27 3.7 °C -0.7 °C 1011.7 hPa West 7.4 km/h 7.4 km/h 73% 0 mm WeatherDisplay:10.37 W/m2 OVC
13:32 3.7 °C -0.9 °C 1011.7 hPa ESE 7.4 km/h 7.4 km/h 72% 0 mm WeatherDisplay:10.37 W/m2 OVC
13:37 3.7 °C -0.9 °C 1011.7 hPa South 1.9 km/h 1.9 km/h 72% 0 mm WeatherDisplay:10.37 W/m2 OVC
13:42 3.7 °C -0.7 °C 1011.7 hPa WNW 3.7 km/h 3.7 km/h 73% 0 mm WeatherDisplay:10.37 W/m2 OVC
13:47 3.7 °C -0.7 °C 1011.4 hPa WNW 5.6 km/h 5.6 km/h 73% 0 mm WeatherDisplay:10.37 W/m2 OVC
13:52 3.7 °C -0.9 °C 1011.4 hPa West 3.7 km/h 3.7 km/h 72% 0 mm WeatherDisplay:10.37 W/m2 OVC
13:57 3.7 °C -0.9 °C 1011.4 hPa WNW 5.6 km/h 5.6 km/h 72% 0 mm WeatherDisplay:10.37 W/m2 OVC
14:02 3.9 °C -0.4 °C 1011.4 hPa WNW 5.6 km/h 5.6 km/h 73% 0 mm WeatherDisplay:10.37 W/m2 OVC
14:07 4.1 °C -0.7 °C 1011.4 hPa WSW 7.4 km/h 7.4 km/h 71% 0 mm WeatherDisplay:10.37 W/m2 OVC
14:12 4.1 °C -0.7 °C 1011.7 hPa NW 9.3 km/h 9.3 km/h 71% 0 mm WeatherDisplay:10.37 W/m2 OVC
14:17 4.1 °C -0.7 °C 1011.4 hPa ESE 3.7 km/h 3.7 km/h 71% 0 mm WeatherDisplay:10.37 W/m2 OVC
14:23 4 °C -0.6 °C 1011.4 hPa SW 1.9 km/h 1.9 km/h 72% 0 mm WeatherDisplay:10.37 W/m2 OVC
14:28 4 °C -0.6 °C 1011.4 hPa NW 7.4 km/h 7.4 km/h 72% 0 mm WeatherDisplay:10.37 W/m2 OVC
14:33 3.9 °C -0.4 °C 1011.4 hPa SSW 7.4 km/h 7.4 km/h 73% 0 mm WeatherDisplay:10.37 W/m2 OVC
14:38 3.9 °C -0.3 °C 1011.4 hPa West 3.7 km/h 3.7 km/h 74% 0 mm WeatherDisplay:10.37 W/m2 OVC
14:43 4.1 °C -0.2 °C 1011.7 hPa West 5.6 km/h 5.6 km/h 74% 0 mm WeatherDisplay:10.37 W/m2 OVC
14:48 4.1 °C -0.2 °C 1011.4 hPa SW 1.9 km/h 1.9 km/h 74% 0 mm WeatherDisplay:10.37 W/m2 OVC
14:53 4.1 °C -0.2 °C 1011.4 hPa NNW 1.9 km/h 1.9 km/h 74% 0 mm WeatherDisplay:10.37 W/m2 OVC
14:58 4 °C -0.4 °C 1011.4 hPa North 9.3 km/h 9.3 km/h 73% 0 mm WeatherDisplay:10.37 W/m2 OVC
15:03 3.9 °C -0.4 °C 1011.4 hPa SSW 7.4 km/h 7.4 km/h 73% 0 mm WeatherDisplay:10.37 W/m2 OVC
15:08 3.8 °C -0.4 °C 1011.4 hPa SSE 5.6 km/h 5.6 km/h 74% 0 mm WeatherDisplay:10.37 W/m2 OVC
15:13 3.8 °C -0.4 °C 1011.4 hPa SW 6.6 km/h 6.6 km/h 74% 0 mm WeatherDisplay:10.37 W/m2 OVC
15:18 3.8 °C -0.2 °C 1011.4 hPa West 1.9 km/h 1.9 km/h 75% 0 mm WeatherDisplay:10.37 W/m2 OVC
15:24 3.9 °C -0.2 °C 1011.4 hPa WNW 1.9 km/h   75% 0 mm WeatherDisplay:10.37 W/m2 OVC
15:29 3.8 °C -0.4 °C 1011.4 hPa NW 3.7 km/h 3.7 km/h 74% 0 mm WeatherDisplay:10.37 W/m2 OVC
15:34 3.9 °C -0.3 °C 1011.7 hPa NNW 5.6 km/h 5.6 km/h 74% 0 mm WeatherDisplay:10.37 W/m2 OVC
15:39 3.9 °C -0.3 °C 1011.7 hPa SW 5.6 km/h 5.6 km/h 74% 0 mm WeatherDisplay:10.37 W/m2 OVC
15:44 3.9 °C -0.3 °C 1011.7 hPa NNW 3.7 km/h 3.7 km/h 74% 0 mm WeatherDisplay:10.37 W/m2 OVC
15:49 4 °C -0.2 °C 1011.7 hPa West 13 km/h 13 km/h 74% 0 mm WeatherDisplay:10.37 W/m2 OVC
15:54 4.1 °C -0.1 °C 1011.7 hPa North 5.6 km/h 5.6 km/h 74% 0 mm WeatherDisplay:10.37 W/m2 OVC
15:59 4.3 °C -0.3 °C 1011.7 hPa WSW 1.9 km/h 1.9 km/h 72% 0 mm WeatherDisplay:10.37 W/m2 OVC
16:04 4.3 °C -0.3 °C 1011.7 hPa West 5.6 km/h 5.6 km/h 72% 0 mm WeatherDisplay:10.37 W/m2 OVC
16:10 4.3 °C -0.7 °C 1011.7 hPa North 5.6 km/h 5.6 km/h 70% 0 mm WeatherDisplay:10.37 W/m2 OVC
16:15 4.3 °C -0.4 °C 1012.1 hPa WNW 1.6 km/h 8 km/h 71% 0 mm WeatherDisplay:10.37 W/m2 OVC
16:20 4.4 °C -0.8 °C 1012.1 hPa West 1.6 km/h 8 km/h 69% 0 mm WeatherDisplay:10.37 W/m2 OVC
16:25 4.4 °C -0.6 °C 1012.1 hPa Calm   3.2 km/h 70% 0 mm WeatherDisplay:10.37 W/m2 OVC
16:30 4.5 °C -0.7 °C 1012.1 hPa Calm   8 km/h 69% 0 mm WeatherDisplay:10.37 W/m2 OVC
16:34 4.5 °C -0.5 °C 1012.1 hPa WNW 1.9 km/h 1.9 km/h 70% 0 mm WeatherDisplay:10.37 W/m2 OVC
16:39 4.6 °C -0.7 °C 1012.1 hPa West 7.4 km/h 7.4 km/h 69% 0 mm WeatherDisplay:10.37 W/m2 OVC
16:45 4.6 °C -0.6 °C 1012.1 hPa Calm   9.7 km/h 69% 0 mm WeatherDisplay:10.37 W/m2 BKN
16:50 4.7 °C -0.7 °C 1012.1 hPa WNW 1.6 km/h 8 km/h 68% 0 mm WeatherDisplay:10.37 W/m2 BKN
16:55 4.7 °C -0.4 °C 1012.1 hPa Calm   4.8 km/h 69% 0 mm WeatherDisplay:10.37 W/m2 BKN
17:00 4.8 °C -0.6 °C 1012.1 hPa Calm   8 km/h 68% 0 mm WeatherDisplay:10.37 W/m2 BKN
17:05 4.9 °C -0.5 °C 1012.1 hPa Calm   4.8 km/h 68% 0 mm WeatherDisplay:10.37 W/m2 BKN
17:10 5 °C -0.2 °C 1012.1 hPa SSW 9.8 km/h 9.8 km/h 69% 0 mm WeatherDisplay:10.37 W/m2 BKN
17:15 4.9 °C -0.7 °C 1012.1 hPa WSW 3.2 km/h 12.9 km/h 67% 0 mm WeatherDisplay:10.37 W/m2 BKN
17:20 4.8 °C -0.6 °C 1012.4 hPa West 1.6 km/h 4.8 km/h 68% 0 mm WeatherDisplay:10.37 W/m2 BKN
17:25 4.7 °C -0.1 °C 1012.4 hPa Calm   8 km/h 71% 0 mm WeatherDisplay:10.37 W/m2 BKN
17:30 4.7 °C -0.3 °C 1012.4 hPa Calm   8 km/h 70% 0 mm WeatherDisplay:10.37 W/m2 BKN
17:35 4.6 °C -0.6 °C 1012.4 hPa SW 3.7 km/h 3.7 km/h 69% 0 mm WeatherDisplay:10.37 W/m2 BKN
17:40 4.5 °C -0.5 °C 1012.4 hPa South 7.4 km/h 7.4 km/h 70% 0 mm WeatherDisplay:10.37 W/m2 BKN
17:45 4.4 °C -1 °C 1012.4 hPa SW 7.4 km/h 7.4 km/h 68% 0 mm WeatherDisplay:10.37 W/m2 BKN
17:50 4.3 °C -0.8 °C 1012.4 hPa West 3.7 km/h 3.7 km/h 69% 0 mm WeatherDisplay:10.37 W/m2 BKN
17:55 4.3 °C -0.7 °C 1012.8 hPa Calm   0.2 km/h 70% 0 mm WeatherDisplay:10.37 W/m2 BKN
18:00 4.3 °C -0.7 °C 1012.4 hPa West 3.2 km/h 3.2 km/h 70% 0 mm WeatherDisplay:10.37 W/m2 BKN
18:05 4.2 °C -0.8 °C 1012.8 hPa West 5.6 km/h 5.6 km/h 70% 0 mm WeatherDisplay:10.37 W/m2 BKN
18:10 4.1 °C -0.7 °C 1012.8 hPa WNW 3.7 km/h 3.7 km/h 71% 0 mm WeatherDisplay:10.37 W/m2 BKN
18:15 4.1 °C -0.9 °C 1012.8 hPa West 1.9 km/h 1.9 km/h 70% 0 mm WeatherDisplay:10.37 W/m2 BKN
18:20 3.9 °C -0.7 °C 1012.8 hPa West 1.9 km/h   72% 0 mm WeatherDisplay:10.37 W/m2 BKN
18:25 3.9 °C -0.7 °C 1012.8 hPa West 1.9 km/h   72% 0 mm WeatherDisplay:10.37 W/m2 BKN
18:30 3.8 °C -0.6 °C 1012.8 hPa NW 3.2 km/h 3.2 km/h 73% 0 mm WeatherDisplay:10.37 W/m2 BKN
18:36 3.7 °C -0.9 °C 1012.8 hPa NW 1.9 km/h 1.9 km/h 72% 0 mm WeatherDisplay:10.37 W/m2 BKN
18:41 3.7 °C -0.7 °C 1013.1 hPa Calm     73% 0 mm WeatherDisplay:10.37 W/m2 BKN
18:46 3.6 °C -0.8 °C 1013.1 hPa West 1.9 km/h 1.9 km/h 73% 0 mm WeatherDisplay:10.37 W/m2 BKN
18:51 3.5 °C -0.7 °C 1013.1 hPa Calm     74% 0 mm WeatherDisplay:10.37 W/m2 BKN
18:56 3.4 °C -0.8 °C 1013.1 hPa Calm     74% 0 mm WeatherDisplay:10.37 W/m2 BKN
19:01 3.3 °C -0.9 °C 1013.1 hPa West 1.9 km/h   74% 0 mm WeatherDisplay:10.37 W/m2 SCT
19:06 3.2 °C -0.6 °C 1013.1 hPa Calm     76% 0 mm WeatherDisplay:10.37 W/m2 SCT
19:11 3.2 °C -0.7 °C 1013.1 hPa Calm     76% 0 mm WeatherDisplay:10.37 W/m2 SCT
19:16 3 °C -0.7 °C 1013.1 hPa Calm     77% 0 mm WeatherDisplay:10.37 W/m2 SCT
19:21 2.9 °C -0.7 °C 1013.1 hPa West 1.9 km/h   77% 0 mm WeatherDisplay:10.37 W/m2 SCT
19:27 2.9 °C -0.6 °C 1013.1 hPa Calm     78% 0 mm WeatherDisplay:10.37 W/m2 SCT
19:32 2.8 °C -0.6 °C 1013.1 hPa WNW 1.9 km/h   78% 0 mm WeatherDisplay:10.37 W/m2 SCT
19:37 2.8 °C -0.8 °C 1013.1 hPa Calm     77% 0 mm WeatherDisplay:10.37 W/m2 SCT
19:42 2.7 °C -0.7 °C 1013.1 hPa Calm     78% 0 mm WeatherDisplay:10.37 W/m2 SCT
19:47 2.7 °C -0.6 °C 1013.1 hPa Calm     79% 0 mm WeatherDisplay:10.37 W/m2 SCT
19:52 2.7 °C -0.6 °C 1013.1 hPa WNW 1.6 km/h   79% 0 mm WeatherDisplay:10.37 W/m2 SCT
19:57 2.6 °C -0.5 °C 1013.1 hPa Calm     80% 0 mm WeatherDisplay:10.37 W/m2 SCT
20:02 2.5 °C -0.8 °C 1013.1 hPa Calm     79% 0 mm WeatherDisplay:10.37 W/m2 SCT
20:07 2.4 °C -0.7 °C 1013.1 hPa Calm     80% 0 mm WeatherDisplay:10.37 W/m2 SCT
20:12 2.4 °C -0.6 °C 1013.1 hPa Calm     81% 0 mm WeatherDisplay:10.37 W/m2 SCT
20:17 2.3 °C -0.7 °C 1013.1 hPa Calm     81% 0 mm WeatherDisplay:10.37 W/m2 SCT
20:22 2.2 °C -0.6 °C 1013.1 hPa Calm     82% 0 mm WeatherDisplay:10.37 W/m2 FEW
20:27 2.1 °C -0.7 °C 1013.1 hPa Calm     82% 0 mm WeatherDisplay:10.37 W/m2 FEW
20:32 2.1 °C -0.7 °C 1013.1 hPa Calm     82% 0 mm WeatherDisplay:10.37 W/m2 FEW
20:38 1.9 °C -0.8 °C 1013.1 hPa Calm     82% 0 mm WeatherDisplay:10.37 W/m2 FEW
20:43 1.9 °C -0.7 °C 1013.1 hPa Calm     83% 0 mm WeatherDisplay:10.37 W/m2 FEW
20:48 1.8 °C -0.7 °C 1013.1 hPa Calm     83% 0 mm WeatherDisplay:10.37 W/m2 FEW
20:53 1.8 °C -0.6 °C 1013.1 hPa Calm     84% 0 mm WeatherDisplay:10.37 W/m2 FEW
20:58 1.7 °C -0.8 °C 1013.1 hPa Calm     83% 0 mm WeatherDisplay:10.37 W/m2 FEW
21:03 1.7 °C -0.7 °C 1013.1 hPa Calm     84% 0 mm WeatherDisplay:10.37 W/m2 FEW
21:08 1.6 °C -0.8 °C 1013.1 hPa Calm     84% 0 mm WeatherDisplay:10.37 W/m2 FEW
21:13 1.6 °C -0.8 °C 1013.1 hPa Calm     84% 0 mm WeatherDisplay:10.37 W/m2 FEW
21:18 1.5 °C -0.7 °C 1013.1 hPa Calm     85% 0 mm WeatherDisplay:10.37 W/m2 FEW
21:23 1.4 °C -0.8 °C 1013.1 hPa Calm     85% 0 mm WeatherDisplay:10.37 W/m2 CLR
21:28 1.4 °C -0.8 °C 1013.1 hPa Calm     85% 0 mm WeatherDisplay:10.37 W/m2 CLR
21:33 1.3 °C -0.9 °C 1013.4 hPa Calm     85% 0 mm WeatherDisplay:10.37 W/m2 CLR
21:39 1.3 °C -0.9 °C 1013.4 hPa Calm     85% 0 mm WeatherDisplay:10.37 W/m2 CLR
21:44 1.2 °C -1 °C 1013.4 hPa Calm     85% 0 mm WeatherDisplay:10.37 W/m2 CLR
21:49 1.2 °C -1.1 °C 1013.4 hPa Calm     85% 0 mm WeatherDisplay:10.37 W/m2 CLR
21:54 1.2 °C -0.9 °C 1013.1 hPa Calm     86% 0 mm WeatherDisplay:10.37 W/m2 CLR
21:59 1.1 °C -0.9 °C 1013.1 hPa Calm     86% 0 mm WeatherDisplay:10.37 W/m2 CLR
22:04 1.1 °C -1 °C 1013.1 hPa Calm     86% 0 mm WeatherDisplay:10.37 W/m2 CLR
22:09 1.1 °C -1 °C 1013.1 hPa Calm     86% 0 mm WeatherDisplay:10.37 W/m2 CLR
22:14 1.1 °C -1 °C 1013.1 hPa Calm     86% 0 mm WeatherDisplay:10.37 W/m2 CLR
22:20 1.1 °C -1 °C 1013.1 hPa Calm     86% 0 mm WeatherDisplay:10.37 W/m2 CLR
22:25 1.1 °C -1 °C 1013.1 hPa Calm     86% 0 mm WeatherDisplay:10.37 W/m2 CLR
22:30 1.1 °C -1.2 °C 1013.1 hPa Calm     85% 0 mm WeatherDisplay:10.37 W/m2 CLR
22:35 1.1 °C -1 °C 1013.4 hPa Calm     86% 0 mm WeatherDisplay:10.37 W/m2 CLR
22:40 1.1 °C -1 °C 1013.4 hPa Calm     86% 0 mm WeatherDisplay:10.37 W/m2 CLR
22:45 1.1 °C -1 °C 1013.4 hPa Calm     86% 0 mm WeatherDisplay:10.37 W/m2 CLR
22:50 1 °C -1.1 °C 1013.8 hPa Calm     86% 0 mm WeatherDisplay:10.37 W/m2 CLR
22:55 1 °C -1.1 °C 1013.8 hPa Calm     86% 0 mm WeatherDisplay:10.37 W/m2 CLR
23:00 0.9 °C -1.1 °C 1013.8 hPa Calm     86% 0 mm WeatherDisplay:10.37 W/m2 CLR
23:11 0.8 °C -1.2 °C 1013.8 hPa Calm     86% 0 mm WeatherDisplay:10.37 W/m2 CLR
23:16 0.8 °C -1.3 °C 1013.8 hPa Calm     86% 0 mm WeatherDisplay:10.37 W/m2 CLR
23:21 0.7 °C -1.3 °C 1013.8 hPa Calm     86% 0 mm WeatherDisplay:10.37 W/m2 CLR
23:22 0.7 °C -1.3 °C 1013.8 hPa Calm     86% 0 mm WeatherDisplay:10.37 W/m2 CLR
23:23 0.7 °C -1.3 °C 1013.8 hPa Calm     86% 0 mm WeatherDisplay:10.37 W/m2 CLR
23:25 0.7 °C -1.3 °C 1013.8 hPa Calm     86% 0 mm WeatherDisplay:10.37 W/m2 CLR
23:30 0.7 °C -1.3 °C 1013.8 hPa Calm     86% 0 mm WeatherDisplay:10.37 W/m2 CLR
23:35 0.7 °C -1.3 °C 1013.8 hPa Calm   0.3 km/h 86% 0 mm WeatherDisplay:10.37 W/m2 CLR
23:41 0.8 °C -1.3 °C 1014.1 hPa Calm     86% 0 mm WeatherDisplay:10.37 W/m2 CLR
23:46 0.8 °C -1.3 °C 1014.1 hPa Calm     86% 0 mm WeatherDisplay:10.37 W/m2 CLR
23:51 0.8 °C -1.3 °C 1014.1 hPa Calm     86% 0 mm WeatherDisplay:10.37 W/m2 CLR
23:56 0.8 °C -1.3 °C 1014.1 hPa Calm     86% 0 mm WeatherDisplay:10.37 W/m2 CLR
Piedmont Bend
Compliments of Weather Underground - 4 mb